sensor_id;sensor_type;location;lat;lon;timestamp;P1;durP1;ratioP1;P2;durP2;ratioP2
21239;SDS011;10778;48.962;9.018;2023-02-01T00:01:45;4.35;;;2.33;;
21239;SDS011;10778;48.962;9.018;2023-02-01T00:04:12;3.17;;;2.08;;
21239;SDS011;10778;48.962;9.018;2023-02-01T00:06:38;4.05;;;2.10;;
21239;SDS011;10778;48.962;9.018;2023-02-01T00:09:04;4.70;;;2.22;;
21239;SDS011;10778;48.962;9.018;2023-02-01T00:11:30;3.65;;;2.58;;
21239;SDS011;10778;48.962;9.018;2023-02-01T00:13:56;4.13;;;2.50;;
21239;SDS011;10778;48.962;9.018;2023-02-01T00:16:23;5.65;;;2.67;;
21239;SDS011;10778;48.962;9.018;2023-02-01T00:18:51;5.75;;;3.08;;
21239;SDS011;10778;48.962;9.018;2023-02-01T00:21:22;5.03;;;2.55;;
21239;SDS011;10778;48.962;9.018;2023-02-01T00:23:48;4.60;;;2.67;;
21239;SDS011;10778;48.962;9.018;2023-02-01T00:26:18;3.90;;;2.85;;
21239;SDS011;10778;48.962;9.018;2023-02-01T00:28:47;5.72;;;2.78;;
21239;SDS011;10778;48.962;9.018;2023-02-01T00:31:13;4.93;;;2.80;;
21239;SDS011;10778;48.962;9.018;2023-02-01T00:33:40;4.05;;;2.75;;
21239;SDS011;10778;48.962;9.018;2023-02-01T00:36:07;3.75;;;2.63;;
21239;SDS011;10778;48.962;9.018;2023-02-01T00:38:39;5.90;;;3.30;;
21239;SDS011;10778;48.962;9.018;2023-02-01T00:41:10;4.53;;;2.53;;
21239;SDS011;10778;48.962;9.018;2023-02-01T00:43:38;5.13;;;2.92;;
21239;SDS011;10778;48.962;9.018;2023-02-01T00:46:05;3.92;;;2.50;;
21239;SDS011;10778;48.962;9.018;2023-02-01T00:48:31;5.57;;;2.60;;
21239;SDS011;10778;48.962;9.018;2023-02-01T00:51:01;4.15;;;2.97;;
21239;SDS011;10778;48.962;9.018;2023-02-01T00:53:35;4.40;;;2.80;;
21239;SDS011;10778;48.962;9.018;2023-02-01T00:56:01;3.50;;;2.65;;
21239;SDS011;10778;48.962;9.018;2023-02-01T00:58:28;2.95;;;2.13;;
21239;SDS011;10778;48.962;9.018;2023-02-01T01:01:05;3.00;;;2.40;;
21239;SDS011;10778;48.962;9.018;2023-02-01T01:03:34;3.38;;;2.42;;
21239;SDS011;10778;48.962;9.018;2023-02-01T01:06:04;4.30;;;2.33;;
21239;SDS011;10778;48.962;9.018;2023-02-01T01:08:32;5.53;;;2.50;;
21239;SDS011;10778;48.962;9.018;2023-02-01T01:11:03;2.97;;;2.00;;
21239;SDS011;10778;48.962;9.018;2023-02-01T01:13:30;3.10;;;2.10;;
21239;SDS011;10778;48.962;9.018;2023-02-01T01:15:59;4.18;;;2.30;;
21239;SDS011;10778;48.962;9.018;2023-02-01T01:18:28;3.10;;;2.42;;
21239;SDS011;10778;48.962;9.018;2023-02-01T01:20:56;3.78;;;2.30;;
21239;SDS011;10778;48.962;9.018;2023-02-01T01:23:22;4.32;;;2.10;;
21239;SDS011;10778;48.962;9.018;2023-02-01T01:25:48;2.72;;;2.08;;
21239;SDS011;10778;48.962;9.018;2023-02-01T01:28:14;4.25;;;2.28;;
21239;SDS011;10778;48.962;9.018;2023-02-01T01:30:41;2.85;;;2.13;;
21239;SDS011;10778;48.962;9.018;2023-02-01T01:33:07;2.67;;;2.33;;
21239;SDS011;10778;48.962;9.018;2023-02-01T01:35:33;3.15;;;2.13;;
21239;SDS011;10778;48.962;9.018;2023-02-01T01:38:00;3.58;;;2.22;;
21239;SDS011;10778;48.962;9.018;2023-02-01T01:40:27;3.53;;;2.35;;
21239;SDS011;10778;48.962;9.018;2023-02-01T01:42:54;4.50;;;2.25;;
21239;SDS011;10778;48.962;9.018;2023-02-01T01:45:28;3.38;;;2.35;;
21239;SDS011;10778;48.962;9.018;2023-02-01T01:48:00;2.70;;;2.15;;
21239;SDS011;10778;48.962;9.018;2023-02-01T01:50:37;4.00;;;2.38;;
21239;SDS011;10778;48.962;9.018;2023-02-01T01:53:07;3.70;;;2.33;;
21239;SDS011;10778;48.962;9.018;2023-02-01T01:55:37;4.35;;;2.00;;
21239;SDS011;10778;48.962;9.018;2023-02-01T01:58:12;3.90;;;2.20;;
21239;SDS011;10778;48.962;9.018;2023-02-01T02:00:41;3.45;;;2.47;;
21239;SDS011;10778;48.962;9.018;2023-02-01T02:03:14;2.65;;;2.22;;
21239;SDS011;10778;48.962;9.018;2023-02-01T02:05:46;3.03;;;2.20;;
21239;SDS011;10778;48.962;9.018;2023-02-01T02:08:14;2.53;;;2.05;;
21239;SDS011;10778;48.962;9.018;2023-02-01T02:10:42;4.70;;;2.47;;
21239;SDS011;10778;48.962;9.018;2023-02-01T02:13:37;4.00;;;2.58;;
21239;SDS011;10778;48.962;9.018;2023-02-01T02:24:39;3.40;;;2.38;;
21239;SDS011;10778;48.962;9.018;2023-02-01T02:43:27;3.15;;;2.10;;
21239;SDS011;10778;48.962;9.018;2023-02-01T02:46:37;2.08;;;1.80;;
21239;SDS011;10778;48.962;9.018;2023-02-01T02:49:47;3.17;;;2.17;;
21239;SDS011;10778;48.962;9.018;2023-02-01T02:52:38;4.22;;;1.98;;
21239;SDS011;10778;48.962;9.018;2023-02-01T02:55:29;2.85;;;1.63;;
21239;SDS011;10778;48.962;9.018;2023-02-01T02:58:01;3.28;;;1.63;;
21239;SDS011;10778;48.962;9.018;2023-02-01T03:00:47;2.45;;;1.70;;
21239;SDS011;10778;48.962;9.018;2023-02-01T03:03:36;3.35;;;1.70;;
21239;SDS011;10778;48.962;9.018;2023-02-01T03:06:24;2.75;;;1.80;;
21239;SDS011;10778;48.962;9.018;2023-02-01T03:08:51;3.38;;;1.80;;
21239;SDS011;10778;48.962;9.018;2023-02-01T03:11:22;2.20;;;1.50;;
21239;SDS011;10778;48.962;9.018;2023-02-01T03:13:53;1.98;;;1.60;;
21239;SDS011;10778;48.962;9.018;2023-02-01T03:16:24;3.00;;;1.73;;
21239;SDS011;10778;48.962;9.018;2023-02-01T03:18:57;2.80;;;1.60;;
21239;SDS011;10778;48.962;9.018;2023-02-01T03:24:03;2.35;;;1.80;;
21239;SDS011;10778;48.962;9.018;2023-02-01T03:26:36;1.92;;;1.63;;
21239;SDS011;10778;48.962;9.018;2023-02-01T03:29:10;3.10;;;1.80;;
21239;SDS011;10778;48.962;9.018;2023-02-01T03:31:42;3.15;;;2.00;;
21239;SDS011;10778;48.962;9.018;2023-02-01T03:34:08;2.55;;;1.80;;
21239;SDS011;10778;48.962;9.018;2023-02-01T03:36:38;2.33;;;1.70;;
21239;SDS011;10778;48.962;9.018;2023-02-01T03:41:58;2.08;;;1.50;;
21239;SDS011;10778;48.962;9.018;2023-02-01T03:47:33;2.20;;;1.40;;
21239;SDS011;10778;48.962;9.018;2023-02-01T03:50:07;2.10;;;1.30;;
21239;SDS011;10778;48.962;9.018;2023-02-01T03:52:40;1.90;;;1.40;;
21239;SDS011;10778;48.962;9.018;2023-02-01T03:55:08;2.75;;;1.45;;
21239;SDS011;10778;48.962;9.018;2023-02-01T03:57:39;2.10;;;1.40;;
21239;SDS011;10778;48.962;9.018;2023-02-01T04:00:17;1.95;;;1.30;;
21239;SDS011;10778;48.962;9.018;2023-02-01T04:02:49;3.03;;;1.60;;
21239;SDS011;10778;48.962;9.018;2023-02-01T04:05:17;2.60;;;1.60;;
21239;SDS011;10778;48.962;9.018;2023-02-01T04:07:51;2.80;;;1.60;;
21239;SDS011;10778;48.962;9.018;2023-02-01T04:10:17;2.30;;;1.40;;
21239;SDS011;10778;48.962;9.018;2023-02-01T04:12:43;1.85;;;1.50;;
21239;SDS011;10778;48.962;9.018;2023-02-01T04:15:09;2.67;;;1.70;;
21239;SDS011;10778;48.962;9.018;2023-02-01T04:17:36;4.03;;;1.80;;
21239;SDS011;10778;48.962;9.018;2023-02-01T04:20:02;2.80;;;1.83;;
21239;SDS011;10778;48.962;9.018;2023-02-01T04:22:29;2.80;;;1.80;;
21239;SDS011;10778;48.962;9.018;2023-02-01T04:24:55;4.20;;;1.83;;
21239;SDS011;10778;48.962;9.018;2023-02-01T04:27:21;2.88;;;1.92;;
21239;SDS011;10778;48.962;9.018;2023-02-01T04:29:47;2.72;;;1.70;;
21239;SDS011;10778;48.962;9.018;2023-02-01T04:32:15;3.25;;;1.90;;
21239;SDS011;10778;48.962;9.018;2023-02-01T04:34:42;2.53;;;1.70;;
21239;SDS011;10778;48.962;9.018;2023-02-01T04:37:08;2.45;;;1.63;;
21239;SDS011;10778;48.962;9.018;2023-02-01T04:39:35;2.42;;;1.63;;
21239;SDS011;10778;48.962;9.018;2023-02-01T04:42:01;3.40;;;1.60;;
21239;SDS011;10778;48.962;9.018;2023-02-01T04:44:27;2.55;;;1.70;;
21239;SDS011;10778;48.962;9.018;2023-02-01T04:46:53;3.78;;;1.70;;
21239;SDS011;10778;48.962;9.018;2023-02-01T04:49:19;2.40;;;1.60;;
21239;SDS011;10778;48.962;9.018;2023-02-01T04:51:47;3.58;;;2.05;;
21239;SDS011;10778;48.962;9.018;2023-02-01T04:54:13;2.67;;;1.90;;
21239;SDS011;10778;48.962;9.018;2023-02-01T04:56:39;3.10;;;1.80;;
21239;SDS011;10778;48.962;9.018;2023-02-01T04:59:06;3.45;;;1.80;;
21239;SDS011;10778;48.962;9.018;2023-02-01T05:01:32;3.38;;;1.80;;
21239;SDS011;10778;48.962;9.018;2023-02-01T05:03:58;2.42;;;1.75;;
21239;SDS011;10778;48.962;9.018;2023-02-01T05:06:24;2.90;;;1.60;;
21239;SDS011;10778;48.962;9.018;2023-02-01T05:08:50;4.03;;;1.75;;
21239;SDS011;10778;48.962;9.018;2023-02-01T05:11:16;4.53;;;1.60;;
21239;SDS011;10778;48.962;9.018;2023-02-01T05:14:01;2.55;;;1.88;;
21239;SDS011;10778;48.962;9.018;2023-02-01T05:16:27;3.10;;;2.05;;
21239;SDS011;10778;48.962;9.018;2023-02-01T05:18:53;3.35;;;2.03;;
21239;SDS011;10778;48.962;9.018;2023-02-01T05:21:19;4.53;;;2.40;;
21239;SDS011;10778;48.962;9.018;2023-02-01T05:23:45;4.82;;;1.80;;
21239;SDS011;10778;48.962;9.018;2023-02-01T05:26:30;5.18;;;2.08;;
21239;SDS011;10778;48.962;9.018;2023-02-01T05:28:56;5.28;;;2.53;;
21239;SDS011;10778;48.962;9.018;2023-02-01T05:31:23;4.00;;;2.22;;
21239;SDS011;10778;48.962;9.018;2023-02-01T05:33:49;2.90;;;2.22;;
21239;SDS011;10778;48.962;9.018;2023-02-01T05:36:16;3.55;;;2.05;;
21239;SDS011;10778;48.962;9.018;2023-02-01T05:38:42;3.83;;;2.20;;
21239;SDS011;10778;48.962;9.018;2023-02-01T05:41:08;3.45;;;1.88;;
21239;SDS011;10778;48.962;9.018;2023-02-01T05:43:34;4.20;;;1.88;;
21239;SDS011;10778;48.962;9.018;2023-02-01T05:46:00;3.08;;;1.50;;
21239;SDS011;10778;48.962;9.018;2023-02-01T05:48:26;2.70;;;1.55;;
21239;SDS011;10778;48.962;9.018;2023-02-01T05:50:52;2.78;;;1.63;;
21239;SDS011;10778;48.962;9.018;2023-02-01T05:53:19;3.65;;;2.42;;
21239;SDS011;10778;48.962;9.018;2023-02-01T05:55:45;5.00;;;2.45;;
21239;SDS011;10778;48.962;9.018;2023-02-01T05:58:11;4.03;;;2.67;;
21239;SDS011;10778;48.962;9.018;2023-02-01T06:00:38;5.65;;;3.10;;
21239;SDS011;10778;48.962;9.018;2023-02-01T06:03:04;5.07;;;2.05;;
21239;SDS011;10778;48.962;9.018;2023-02-01T06:05:30;2.95;;;2.13;;
21239;SDS011;10778;48.962;9.018;2023-02-01T06:07:56;5.13;;;2.72;;
21239;SDS011;10778;48.962;9.018;2023-02-01T06:10:22;4.90;;;2.35;;
21239;SDS011;10778;48.962;9.018;2023-02-01T06:12:48;3.47;;;2.50;;
21239;SDS011;10778;48.962;9.018;2023-02-01T06:15:15;3.92;;;2.42;;
21239;SDS011;10778;48.962;9.018;2023-02-01T06:17:42;6.00;;;2.90;;
21239;SDS011;10778;48.962;9.018;2023-02-01T06:20:10;6.38;;;3.15;;
21239;SDS011;10778;48.962;9.018;2023-02-01T06:22:37;5.53;;;3.42;;
21239;SDS011;10778;48.962;9.018;2023-02-01T06:25:04;8.40;;;3.67;;
21239;SDS011;10778;48.962;9.018;2023-02-01T06:27:31;6.68;;;3.80;;
21239;SDS011;10778;48.962;9.018;2023-02-01T06:29:57;8.57;;;4.15;;
21239;SDS011;10778;48.962;9.018;2023-02-01T06:32:23;8.05;;;4.22;;
21239;SDS011;10778;48.962;9.018;2023-02-01T06:34:50;7.18;;;4.38;;
21239;SDS011;10778;48.962;9.018;2023-02-01T06:37:18;9.65;;;4.45;;
21239;SDS011;10778;48.962;9.018;2023-02-01T06:39:45;8.20;;;4.25;;
21239;SDS011;10778;48.962;9.018;2023-02-01T06:42:11;7.78;;;3.70;;
21239;SDS011;10778;48.962;9.018;2023-02-01T06:44:37;7.70;;;4.35;;
21239;SDS011;10778;48.962;9.018;2023-02-01T06:47:03;7.13;;;4.30;;
21239;SDS011;10778;48.962;9.018;2023-02-01T06:49:30;9.27;;;4.80;;
21239;SDS011;10778;48.962;9.018;2023-02-01T06:51:56;10.32;;;4.38;;
21239;SDS011;10778;48.962;9.018;2023-02-01T06:54:22;12.73;;;4.90;;
21239;SDS011;10778;48.962;9.018;2023-02-01T06:56:48;10.10;;;4.72;;
21239;SDS011;10778;48.962;9.018;2023-02-01T06:59:14;10.43;;;4.60;;
21239;SDS011;10778;48.962;9.018;2023-02-01T07:01:40;9.93;;;5.03;;
21239;SDS011;10778;48.962;9.018;2023-02-01T07:04:06;11.00;;;4.68;;
21239;SDS011;10778;48.962;9.018;2023-02-01T07:06:32;12.55;;;5.30;;
21239;SDS011;10778;48.962;9.018;2023-02-01T07:08:58;11.57;;;5.40;;
21239;SDS011;10778;48.962;9.018;2023-02-01T07:11:24;13.38;;;5.40;;
21239;SDS011;10778;48.962;9.018;2023-02-01T07:13:50;14.48;;;5.85;;
21239;SDS011;10778;48.962;9.018;2023-02-01T07:16:17;13.90;;;5.70;;
21239;SDS011;10778;48.962;9.018;2023-02-01T07:18:44;15.68;;;5.40;;
21239;SDS011;10778;48.962;9.018;2023-02-01T07:21:11;12.05;;;5.57;;
21239;SDS011;10778;48.962;9.018;2023-02-01T07:23:37;8.68;;;5.20;;
21239;SDS011;10778;48.962;9.018;2023-02-01T07:26:04;11.70;;;5.43;;
21239;SDS011;10778;48.962;9.018;2023-02-01T07:28:33;10.00;;;5.18;;
21239;SDS011;10778;48.962;9.018;2023-02-01T07:31:04;12.57;;;5.18;;
21239;SDS011;10778;48.962;9.018;2023-02-01T07:33:30;14.20;;;5.10;;
21239;SDS011;10778;48.962;9.018;2023-02-01T07:35:56;17.50;;;6.00;;
21239;SDS011;10778;48.962;9.018;2023-02-01T07:38:22;14.20;;;5.10;;
21239;SDS011;10778;48.962;9.018;2023-02-01T07:40:49;12.27;;;5.35;;
21239;SDS011;10778;48.962;9.018;2023-02-01T07:43:15;10.77;;;4.70;;
21239;SDS011;10778;48.962;9.018;2023-02-01T07:45:41;10.90;;;4.75;;
21239;SDS011;10778;48.962;9.018;2023-02-01T07:48:07;12.85;;;5.03;;
21239;SDS011;10778;48.962;9.018;2023-02-01T07:50:33;13.18;;;5.20;;
21239;SDS011;10778;48.962;9.018;2023-02-01T07:53:00;9.20;;;4.63;;
21239;SDS011;10778;48.962;9.018;2023-02-01T07:55:26;11.80;;;5.03;;
21239;SDS011;10778;48.962;9.018;2023-02-01T07:57:56;16.52;;;5.40;;
21239;SDS011;10778;48.962;9.018;2023-02-01T08:00:23;15.32;;;5.78;;
21239;SDS011;10778;48.962;9.018;2023-02-01T08:03:07;11.90;;;4.88;;
21239;SDS011;10778;48.962;9.018;2023-02-01T08:05:33;15.15;;;5.60;;
21239;SDS011;10778;48.962;9.018;2023-02-01T08:07:59;12.15;;;5.45;;
21239;SDS011;10778;48.962;9.018;2023-02-01T08:10:25;13.50;;;5.20;;
21239;SDS011;10778;48.962;9.018;2023-02-01T08:12:51;12.52;;;5.00;;
21239;SDS011;10778;48.962;9.018;2023-02-01T08:15:17;13.88;;;4.80;;
21239;SDS011;10778;48.962;9.018;2023-02-01T08:17:47;15.93;;;5.18;;
21239;SDS011;10778;48.962;9.018;2023-02-01T08:20:14;12.73;;;4.90;;
21239;SDS011;10778;48.962;9.018;2023-02-01T08:22:41;12.52;;;4.85;;
21239;SDS011;10778;48.962;9.018;2023-02-01T08:25:07;11.38;;;4.85;;
21239;SDS011;10778;48.962;9.018;2023-02-01T08:27:34;12.65;;;5.18;;
21239;SDS011;10778;48.962;9.018;2023-02-01T08:30:00;11.35;;;4.82;;
21239;SDS011;10778;48.962;9.018;2023-02-01T08:32:27;17.02;;;5.10;;
21239;SDS011;10778;48.962;9.018;2023-02-01T08:34:53;10.32;;;4.18;;
21239;SDS011;10778;48.962;9.018;2023-02-01T08:37:19;13.02;;;4.55;;
21239;SDS011;10778;48.962;9.018;2023-02-01T08:39:45;15.27;;;4.20;;
21239;SDS011;10778;48.962;9.018;2023-02-01T08:42:12;12.30;;;4.40;;
21239;SDS011;10778;48.962;9.018;2023-02-01T08:44:57;11.77;;;4.40;;
21239;SDS011;10778;48.962;9.018;2023-02-01T08:47:23;14.30;;;4.32;;
21239;SDS011;10778;48.962;9.018;2023-02-01T08:49:49;10.27;;;3.80;;
21239;SDS011;10778;48.962;9.018;2023-02-01T08:52:15;14.38;;;3.65;;
21239;SDS011;10778;48.962;9.018;2023-02-01T08:54:41;13.00;;;4.47;;
21239;SDS011;10778;48.962;9.018;2023-02-01T08:57:07;17.48;;;4.25;;
21239;SDS011;10778;48.962;9.018;2023-02-01T08:59:35;9.93;;;3.70;;
21239;SDS011;10778;48.962;9.018;2023-02-01T09:02:01;13.10;;;3.70;;
21239;SDS011;10778;48.962;9.018;2023-02-01T09:04:27;14.93;;;3.90;;
21239;SDS011;10778;48.962;9.018;2023-02-01T09:06:53;12.30;;;3.63;;
21239;SDS011;10778;48.962;9.018;2023-02-01T09:09:21;9.73;;;3.35;;
21239;SDS011;10778;48.962;9.018;2023-02-01T09:11:48;11.02;;;3.60;;
21239;SDS011;10778;48.962;9.018;2023-02-01T09:14:16;11.93;;;3.53;;
21239;SDS011;10778;48.962;9.018;2023-02-01T09:16:42;15.07;;;3.75;;
21239;SDS011;10778;48.962;9.018;2023-02-01T09:19:08;12.80;;;3.90;;
21239;SDS011;10778;48.962;9.018;2023-02-01T09:21:35;15.60;;;4.68;;
21239;SDS011;10778;48.962;9.018;2023-02-01T09:24:01;13.70;;;3.70;;
21239;SDS011;10778;48.962;9.018;2023-02-01T09:26:27;11.77;;;3.97;;
21239;SDS011;10778;48.962;9.018;2023-02-01T09:28:53;15.48;;;4.75;;
21239;SDS011;10778;48.962;9.018;2023-02-01T09:31:19;17.13;;;4.32;;
21239;SDS011;10778;48.962;9.018;2023-02-01T09:33:45;13.88;;;3.80;;
21239;SDS011;10778;48.962;9.018;2023-02-01T09:36:11;15.25;;;4.43;;
21239;SDS011;10778;48.962;9.018;2023-02-01T09:38:37;11.55;;;4.05;;
21239;SDS011;10778;48.962;9.018;2023-02-01T09:41:10;13.57;;;3.95;;
21239;SDS011;10778;48.962;9.018;2023-02-01T09:46:40;13.35;;;3.65;;
21239;SDS011;10778;48.962;9.018;2023-02-01T09:49:10;14.25;;;3.10;;
21239;SDS011;10778;48.962;9.018;2023-02-01T09:51:45;13.88;;;3.20;;
21239;SDS011;10778;48.962;9.018;2023-02-01T09:54:15;12.07;;;3.58;;
21239;SDS011;10778;48.962;9.018;2023-02-01T10:01:57;11.43;;;3.28;;
21239;SDS011;10778;48.962;9.018;2023-02-01T10:04:25;12.38;;;3.22;;
21239;SDS011;10778;48.962;9.018;2023-02-01T10:06:55;12.00;;;2.92;;
21239;SDS011;10778;48.962;9.018;2023-02-01T10:14:56;16.77;;;3.17;;
21239;SDS011;10778;48.962;9.018;2023-02-01T10:23:27;16.80;;;3.13;;
21239;SDS011;10778;48.962;9.018;2023-02-01T10:26:17;18.80;;;3.33;;
21239;SDS011;10778;48.962;9.018;2023-02-01T10:28:44;10.00;;;2.70;;
21239;SDS011;10778;48.962;9.018;2023-02-01T10:31:14;13.00;;;3.20;;
21239;SDS011;10778;48.962;9.018;2023-02-01T10:33:46;13.85;;;3.08;;
21239;SDS011;10778;48.962;9.018;2023-02-01T10:38:47;15.52;;;3.85;;
21239;SDS011;10778;48.962;9.018;2023-02-01T10:41:17;13.63;;;3.47;;
21239;SDS011;10778;48.962;9.018;2023-02-01T10:43:50;15.30;;;3.65;;
21239;SDS011;10778;48.962;9.018;2023-02-01T10:46:22;18.80;;;3.72;;
21239;SDS011;10778;48.962;9.018;2023-02-01T10:48:49;21.00;;;3.88;;
21239;SDS011;10778;48.962;9.018;2023-02-01T10:51:21;14.25;;;3.22;;
21239;SDS011;10778;48.962;9.018;2023-02-01T10:53:56;14.50;;;3.60;;
21239;SDS011;10778;48.962;9.018;2023-02-01T10:56:27;17.85;;;3.80;;
21239;SDS011;10778;48.962;9.018;2023-02-01T10:59:01;17.83;;;3.95;;
21239;SDS011;10778;48.962;9.018;2023-02-01T11:01:40;15.40;;;3.55;;
21239;SDS011;10778;48.962;9.018;2023-02-01T11:04:11;13.68;;;3.40;;
21239;SDS011;10778;48.962;9.018;2023-02-01T11:06:51;19.63;;;3.88;;
21239;SDS011;10778;48.962;9.018;2023-02-01T11:09:30;14.95;;;3.22;;
21239;SDS011;10778;48.962;9.018;2023-02-01T11:11:57;18.60;;;3.95;;
21239;SDS011;10778;48.962;9.018;2023-02-01T11:16:54;17.48;;;3.90;;
21239;SDS011;10778;48.962;9.018;2023-02-01T11:19:23;14.00;;;3.72;;
21239;SDS011;10778;48.962;9.018;2023-02-01T11:21:50;16.48;;;3.67;;
21239;SDS011;10778;48.962;9.018;2023-02-01T11:24:35;14.65;;;3.65;;
21239;SDS011;10778;48.962;9.018;2023-02-01T11:27:04;13.77;;;3.58;;
21239;SDS011;10778;48.962;9.018;2023-02-01T11:29:39;11.10;;;3.30;;
21239;SDS011;10778;48.962;9.018;2023-02-01T11:32:08;12.18;;;3.33;;
21239;SDS011;10778;48.962;9.018;2023-02-01T11:34:38;12.20;;;3.25;;
21239;SDS011;10778;48.962;9.018;2023-02-01T11:37:09;13.98;;;3.53;;
21239;SDS011;10778;48.962;9.018;2023-02-01T11:39:43;16.75;;;3.47;;
21239;SDS011;10778;48.962;9.018;2023-02-01T11:42:19;10.73;;;3.47;;
21239;SDS011;10778;48.962;9.018;2023-02-01T11:44:46;15.98;;;3.28;;
21239;SDS011;10778;48.962;9.018;2023-02-01T11:47:26;12.65;;;3.47;;
21239;SDS011;10778;48.962;9.018;2023-02-01T11:49:56;16.13;;;3.15;;
21239;SDS011;10778;48.962;9.018;2023-02-01T12:06:43;16.80;;;3.40;;
21239;SDS011;10778;48.962;9.018;2023-02-01T12:09:34;11.85;;;3.08;;
21239;SDS011;10778;48.962;9.018;2023-02-01T12:20:52;19.38;;;4.57;;
21239;SDS011;10778;48.962;9.018;2023-02-01T12:26:08;15.73;;;4.28;;
21239;SDS011;10778;48.962;9.018;2023-02-01T12:37:13;15.90;;;3.88;;
21239;SDS011;10778;48.962;9.018;2023-02-01T12:41:08;19.23;;;4.20;;
21239;SDS011;10778;48.962;9.018;2023-02-01T12:43:34;13.23;;;4.25;;
21239;SDS011;10778;48.962;9.018;2023-02-01T12:46:09;17.83;;;4.80;;
21239;SDS011;10778;48.962;9.018;2023-02-01T12:48:43;17.05;;;3.53;;
21239;SDS011;10778;48.962;9.018;2023-02-01T12:51:18;11.07;;;2.90;;
21239;SDS011;10778;48.962;9.018;2023-02-01T12:56:26;11.57;;;2.97;;
21239;SDS011;10778;48.962;9.018;2023-02-01T12:59:13;14.40;;;3.22;;
21239;SDS011;10778;48.962;9.018;2023-02-01T13:01:54;18.02;;;3.40;;
21239;SDS011;10778;48.962;9.018;2023-02-01T13:04:26;15.07;;;3.50;;
21239;SDS011;10778;48.962;9.018;2023-02-01T13:07:00;12.77;;;3.15;;
21239;SDS011;10778;48.962;9.018;2023-02-01T13:12:18;16.30;;;3.15;;
21239;SDS011;10778;48.962;9.018;2023-02-01T13:15:10;14.85;;;3.45;;
21239;SDS011;10778;48.962;9.018;2023-02-01T13:17:40;15.32;;;3.33;;
21239;SDS011;10778;48.962;9.018;2023-02-01T13:20:23;12.77;;;3.50;;
21239;SDS011;10778;48.962;9.018;2023-02-01T13:23:09;15.40;;;3.72;;
21239;SDS011;10778;48.962;9.018;2023-02-01T13:25:48;15.45;;;3.60;;
21239;SDS011;10778;48.962;9.018;2023-02-01T13:28:17;15.57;;;3.58;;
21239;SDS011;10778;48.962;9.018;2023-02-01T13:30:54;13.55;;;3.22;;
21239;SDS011;10778;48.962;9.018;2023-02-01T13:44:59;13.48;;;3.55;;
21239;SDS011;10778;48.962;9.018;2023-02-01T13:47:31;12.90;;;3.65;;
21239;SDS011;10778;48.962;9.018;2023-02-01T13:50:03;14.48;;;3.72;;
21239;SDS011;10778;48.962;9.018;2023-02-01T13:52:40;15.07;;;4.53;;
21239;SDS011;10778;48.962;9.018;2023-02-01T13:57:39;21.50;;;8.00;;
21239;SDS011;10778;48.962;9.018;2023-02-01T14:03:01;18.58;;;3.55;;
21239;SDS011;10778;48.962;9.018;2023-02-01T14:16:10;18.63;;;4.13;;
21239;SDS011;10778;48.962;9.018;2023-02-01T14:23:47;16.00;;;3.58;;
21239;SDS011;10778;48.962;9.018;2023-02-01T14:26:24;13.90;;;3.38;;
21239;SDS011;10778;48.962;9.018;2023-02-01T14:29:01;11.65;;;3.25;;
21239;SDS011;10778;48.962;9.018;2023-02-01T14:31:47;14.15;;;3.53;;
21239;SDS011;10778;48.962;9.018;2023-02-01T14:34:24;14.00;;;3.05;;
21239;SDS011;10778;48.962;9.018;2023-02-01T14:36:58;15.30;;;3.40;;
21239;SDS011;10778;48.962;9.018;2023-02-01T14:42:20;17.13;;;3.88;;
21239;SDS011;10778;48.962;9.018;2023-02-01T14:44:51;15.18;;;3.13;;
21239;SDS011;10778;48.962;9.018;2023-02-01T14:52:39;13.13;;;3.05;;
21239;SDS011;10778;48.962;9.018;2023-02-01T14:55:18;14.75;;;2.78;;
21239;SDS011;10778;48.962;9.018;2023-02-01T14:57:50;13.73;;;2.95;;
21239;SDS011;10778;48.962;9.018;2023-02-01T15:00:21;14.52;;;3.13;;
21239;SDS011;10778;48.962;9.018;2023-02-01T15:02:48;15.15;;;3.20;;
21239;SDS011;10778;48.962;9.018;2023-02-01T15:05:26;14.75;;;3.35;;
21239;SDS011;10778;48.962;9.018;2023-02-01T15:08:04;13.90;;;3.08;;
21239;SDS011;10778;48.962;9.018;2023-02-01T15:10:46;14.10;;;3.35;;
21239;SDS011;10778;48.962;9.018;2023-02-01T15:13:18;15.93;;;3.53;;
21239;SDS011;10778;48.962;9.018;2023-02-01T15:16:02;14.00;;;3.28;;
21239;SDS011;10778;48.962;9.018;2023-02-01T15:18:39;13.15;;;3.00;;
21239;SDS011;10778;48.962;9.018;2023-02-01T15:21:12;14.05;;;3.20;;
21239;SDS011;10778;48.962;9.018;2023-02-01T15:23:42;20.63;;;3.78;;
21239;SDS011;10778;48.962;9.018;2023-02-01T15:26:08;13.93;;;3.60;;
21239;SDS011;10778;48.962;9.018;2023-02-01T15:28:34;16.55;;;3.65;;
21239;SDS011;10778;48.962;9.018;2023-02-01T15:31:04;16.23;;;3.00;;
21239;SDS011;10778;48.962;9.018;2023-02-01T15:33:31;16.88;;;3.22;;
21239;SDS011;10778;48.962;9.018;2023-02-01T15:46:14;14.40;;;3.45;;
21239;SDS011;10778;48.962;9.018;2023-02-01T15:48:43;19.65;;;3.58;;
21239;SDS011;10778;48.962;9.018;2023-02-01T15:51:12;16.70;;;3.63;;
21239;SDS011;10778;48.962;9.018;2023-02-01T15:53:43;13.45;;;3.05;;
21239;SDS011;10778;48.962;9.018;2023-02-01T15:56:12;12.57;;;2.83;;
21239;SDS011;10778;48.962;9.018;2023-02-01T15:58:40;12.88;;;3.22;;
21239;SDS011;10778;48.962;9.018;2023-02-01T16:01:10;15.48;;;3.58;;
21239;SDS011;10778;48.962;9.018;2023-02-01T16:06:08;14.35;;;3.60;;
21239;SDS011;10778;48.962;9.018;2023-02-01T16:08:36;12.20;;;3.17;;
21239;SDS011;10778;48.962;9.018;2023-02-01T16:13:35;15.68;;;3.40;;
21239;SDS011;10778;48.962;9.018;2023-02-01T16:16:01;13.27;;;3.38;;
21239;SDS011;10778;48.962;9.018;2023-02-01T16:18:29;14.25;;;3.28;;
21239;SDS011;10778;48.962;9.018;2023-02-01T16:20:55;13.63;;;3.72;;
21239;SDS011;10778;48.962;9.018;2023-02-01T16:23:21;16.20;;;3.58;;
21239;SDS011;10778;48.962;9.018;2023-02-01T16:25:47;13.15;;;4.63;;
21239;SDS011;10778;48.962;9.018;2023-02-01T16:28:13;17.73;;;4.20;;
21239;SDS011;10778;48.962;9.018;2023-02-01T16:30:39;21.52;;;5.20;;
21239;SDS011;10778;48.962;9.018;2023-02-01T16:33:05;14.57;;;3.85;;
21239;SDS011;10778;48.962;9.018;2023-02-01T16:35:40;14.38;;;3.53;;
21239;SDS011;10778;48.962;9.018;2023-02-01T16:38:13;16.70;;;3.47;;
21239;SDS011;10778;48.962;9.018;2023-02-01T16:40:44;11.57;;;2.72;;
21239;SDS011;10778;48.962;9.018;2023-02-01T16:43:20;15.07;;;3.38;;
21239;SDS011;10778;48.962;9.018;2023-02-01T16:45:48;14.80;;;3.10;;
21239;SDS011;10778;48.962;9.018;2023-02-01T16:48:26;16.33;;;3.63;;
21239;SDS011;10778;48.962;9.018;2023-02-01T16:50:57;17.77;;;3.72;;
21239;SDS011;10778;48.962;9.018;2023-02-01T16:53:26;17.15;;;3.78;;
21239;SDS011;10778;48.962;9.018;2023-02-01T16:55:54;14.82;;;3.75;;
21239;SDS011;10778;48.962;9.018;2023-02-01T16:58:23;15.65;;;3.80;;
21239;SDS011;10778;48.962;9.018;2023-02-01T17:00:50;15.65;;;4.00;;
21239;SDS011;10778;48.962;9.018;2023-02-01T17:03:17;13.40;;;3.38;;
21239;SDS011;10778;48.962;9.018;2023-02-01T17:05:45;16.08;;;3.72;;
21239;SDS011;10778;48.962;9.018;2023-02-01T17:08:26;13.13;;;3.70;;
21239;SDS011;10778;48.962;9.018;2023-02-01T17:10:55;17.35;;;4.30;;
21239;SDS011;10778;48.962;9.018;2023-02-01T17:13:21;15.10;;;3.95;;
21239;SDS011;10778;48.962;9.018;2023-02-01T17:18:29;13.57;;;3.58;;
21239;SDS011;10778;48.962;9.018;2023-02-01T17:20:58;16.15;;;5.10;;
21239;SDS011;10778;48.962;9.018;2023-02-01T17:23:27;15.30;;;3.63;;
21239;SDS011;10778;48.962;9.018;2023-02-01T17:25:54;12.68;;;3.72;;
21239;SDS011;10778;48.962;9.018;2023-02-01T17:28:20;16.40;;;5.00;;
21239;SDS011;10778;48.962;9.018;2023-02-01T17:30:47;17.67;;;4.43;;
21239;SDS011;10778;48.962;9.018;2023-02-01T17:33:23;14.65;;;4.72;;
21239;SDS011;10778;48.962;9.018;2023-02-01T17:35:53;16.05;;;4.28;;